sensor_id;sensor_type;location;lat;lon;timestamp;temperature;humidity
19970;DHT22;10146;47.754;9.566;2023-04-03T00:01:12;5.80;99.90
19970;DHT22;10146;47.754;9.566;2023-04-03T00:03:37;5.90;99.90
19970;DHT22;10146;47.754;9.566;2023-04-03T00:06:04;5.70;99.90
19970;DHT22;10146;47.754;9.566;2023-04-03T00:08:32;5.80;99.90
19970;DHT22;10146;47.754;9.566;2023-04-03T00:10:58;5.90;99.90
19970;DHT22;10146;47.754;9.566;2023-04-03T00:13:24;5.90;99.90
19970;DHT22;10146;47.754;9.566;2023-04-03T00:15:51;5.70;99.90
19970;DHT22;10146;47.754;9.566;2023-04-03T00:18:17;5.90;99.90
19970;DHT22;10146;47.754;9.566;2023-04-03T00:20:43;5.80;99.90
19970;DHT22;10146;47.754;9.566;2023-04-03T00:23:09;5.80;99.90
19970;DHT22;10146;47.754;9.566;2023-04-03T00:25:35;5.70;99.90
19970;DHT22;10146;47.754;9.566;2023-04-03T00:28:01;5.70;99.90
19970;DHT22;10146;47.754;9.566;2023-04-03T00:30:27;5.60;99.90
19970;DHT22;10146;47.754;9.566;2023-04-03T00:32:52;5.50;99.90
19970;DHT22;10146;47.754;9.566;2023-04-03T00:35:19;5.50;99.90
19970;DHT22;10146;47.754;9.566;2023-04-03T00:37:46;5.40;99.90
19970;DHT22;10146;47.754;9.566;2023-04-03T00:40:13;5.30;99.90
19970;DHT22;10146;47.754;9.566;2023-04-03T00:42:40;5.40;99.90
19970;DHT22;10146;47.754;9.566;2023-04-03T00:47:39;5.20;99.90
19970;DHT22;10146;47.754;9.566;2023-04-03T00:50:06;5.20;99.90
19970;DHT22;10146;47.754;9.566;2023-04-03T00:52:32;5.20;99.90
19970;DHT22;10146;47.754;9.566;2023-04-03T00:55:01;5.20;99.90
19970;DHT22;10146;47.754;9.566;2023-04-03T00:57:28;5.10;99.90
19970;DHT22;10146;47.754;9.566;2023-04-03T00:59:57;5.10;99.90
19970;DHT22;10146;47.754;9.566;2023-04-03T01:02:24;4.90;99.90
19970;DHT22;10146;47.754;9.566;2023-04-03T01:04:51;5.00;99.90
19970;DHT22;10146;47.754;9.566;2023-04-03T01:07:20;5.00;99.90
19970;DHT22;10146;47.754;9.566;2023-04-03T01:09:48;4.90;99.90
19970;DHT22;10146;47.754;9.566;2023-04-03T01:12:25;4.90;99.90
19970;DHT22;10146;47.754;9.566;2023-04-03T01:14:53;4.80;99.90
19970;DHT22;10146;47.754;9.566;2023-04-03T01:22:56;4.60;99.90
19970;DHT22;10146;47.754;9.566;2023-04-03T01:25:24;4.70;99.90
19970;DHT22;10146;47.754;9.566;2023-04-03T01:27:50;4.50;99.90
19970;DHT22;10146;47.754;9.566;2023-04-03T01:30:18;4.40;99.90
19970;DHT22;10146;47.754;9.566;2023-04-03T01:32:45;4.50;99.90
19970;DHT22;10146;47.754;9.566;2023-04-03T01:35:12;4.50;99.90
19970;DHT22;10146;47.754;9.566;2023-04-03T01:37:37;4.50;99.90
19970;DHT22;10146;47.754;9.566;2023-04-03T01:40:04;4.40;99.90
19970;DHT22;10146;47.754;9.566;2023-04-03T01:42:29;4.50;99.90
19970;DHT22;10146;47.754;9.566;2023-04-03T01:44:55;4.40;99.90
19970;DHT22;10146;47.754;9.566;2023-04-03T01:47:21;4.40;99.90
19970;DHT22;10146;47.754;9.566;2023-04-03T01:49:47;4.20;99.90
19970;DHT22;10146;47.754;9.566;2023-04-03T01:52:13;4.20;99.90
19970;DHT22;10146;47.754;9.566;2023-04-03T01:54:38;4.20;99.90
19970;DHT22;10146;47.754;9.566;2023-04-03T01:57:04;4.20;99.90
19970;DHT22;10146;47.754;9.566;2023-04-03T01:59:29;4.10;99.90
19970;DHT22;10146;47.754;9.566;2023-04-03T02:01:55;4.10;99.90
19970;DHT22;10146;47.754;9.566;2023-04-03T02:04:21;4.10;99.90
19970;DHT22;10146;47.754;9.566;2023-04-03T02:06:47;3.90;99.90
19970;DHT22;10146;47.754;9.566;2023-04-03T02:09:12;3.90;99.90
19970;DHT22;10146;47.754;9.566;2023-04-03T02:11:38;3.80;99.90
19970;DHT22;10146;47.754;9.566;2023-04-03T02:14:04;3.70;99.90
19970;DHT22;10146;47.754;9.566;2023-04-03T02:16:29;3.70;99.90
19970;DHT22;10146;47.754;9.566;2023-04-03T02:18:56;3.70;99.90
19970;DHT22;10146;47.754;9.566;2023-04-03T02:21:22;3.60;99.90
19970;DHT22;10146;47.754;9.566;2023-04-03T02:23:47;3.60;99.90
19970;DHT22;10146;47.754;9.566;2023-04-03T02:26:15;3.50;99.90
19970;DHT22;10146;47.754;9.566;2023-04-03T02:28:41;3.70;99.90
19970;DHT22;10146;47.754;9.566;2023-04-03T02:31:07;3.70;99.90
19970;DHT22;10146;47.754;9.566;2023-04-03T02:33:34;3.80;99.90
19970;DHT22;10146;47.754;9.566;2023-04-03T02:36:02;3.80;99.90
19970;DHT22;10146;47.754;9.566;2023-04-03T02:38:28;3.70;99.90
19970;DHT22;10146;47.754;9.566;2023-04-03T02:41:06;3.90;99.90
19970;DHT22;10146;47.754;9.566;2023-04-03T02:43:32;3.80;99.90
19970;DHT22;10146;47.754;9.566;2023-04-03T02:45:58;3.80;99.90
19970;DHT22;10146;47.754;9.566;2023-04-03T02:48:24;3.90;99.90
19970;DHT22;10146;47.754;9.566;2023-04-03T02:50:50;3.90;99.90
19970;DHT22;10146;47.754;9.566;2023-04-03T02:53:15;3.80;99.90
19970;DHT22;10146;47.754;9.566;2023-04-03T02:55:41;3.70;99.90
19970;DHT22;10146;47.754;9.566;2023-04-03T02:58:07;3.70;99.90
19970;DHT22;10146;47.754;9.566;2023-04-03T03:00:33;3.80;99.90
19970;DHT22;10146;47.754;9.566;2023-04-03T03:02:59;3.70;99.90
19970;DHT22;10146;47.754;9.566;2023-04-03T03:05:25;3.90;99.90
19970;DHT22;10146;47.754;9.566;2023-04-03T03:07:51;3.90;99.90
19970;DHT22;10146;47.754;9.566;2023-04-03T03:10:17;3.80;99.90
19970;DHT22;10146;47.754;9.566;2023-04-03T03:12:42;3.60;99.90
19970;DHT22;10146;47.754;9.566;2023-04-03T03:15:08;3.60;99.90
19970;DHT22;10146;47.754;9.566;2023-04-03T03:17:34;3.60;99.90
19970;DHT22;10146;47.754;9.566;2023-04-03T03:20:01;3.70;99.90
19970;DHT22;10146;47.754;9.566;2023-04-03T03:22:27;3.70;99.90
19970;DHT22;10146;47.754;9.566;2023-04-03T03:24:53;3.60;99.90
19970;DHT22;10146;47.754;9.566;2023-04-03T03:27:19;3.60;99.90
19970;DHT22;10146;47.754;9.566;2023-04-03T03:29:44;3.70;99.90
19970;DHT22;10146;47.754;9.566;2023-04-03T03:32:10;3.70;99.90
19970;DHT22;10146;47.754;9.566;2023-04-03T03:34:35;3.70;99.90
19970;DHT22;10146;47.754;9.566;2023-04-03T03:37:01;3.80;99.90
19970;DHT22;10146;47.754;9.566;2023-04-03T03:39:27;3.60;99.90
19970;DHT22;10146;47.754;9.566;2023-04-03T03:41:52;3.60;99.90
19970;DHT22;10146;47.754;9.566;2023-04-03T03:44:19;3.80;99.90
19970;DHT22;10146;47.754;9.566;2023-04-03T03:46:45;3.70;99.90
19970;DHT22;10146;47.754;9.566;2023-04-03T03:49:10;3.60;99.90
19970;DHT22;10146;47.754;9.566;2023-04-03T03:51:37;3.60;99.90
19970;DHT22;10146;47.754;9.566;2023-04-03T03:54:03;3.70;99.90
19970;DHT22;10146;47.754;9.566;2023-04-03T03:56:29;3.70;99.90
19970;DHT22;10146;47.754;9.566;2023-04-03T03:58:54;3.70;99.90
19970;DHT22;10146;47.754;9.566;2023-04-03T04:01:22;3.70;99.90
19970;DHT22;10146;47.754;9.566;2023-04-03T04:03:48;3.70;99.90
19970;DHT22;10146;47.754;9.566;2023-04-03T04:06:14;3.80;99.90
19970;DHT22;10146;47.754;9.566;2023-04-03T04:08:40;3.70;99.90
19970;DHT22;10146;47.754;9.566;2023-04-03T04:11:06;3.70;99.90
19970;DHT22;10146;47.754;9.566;2023-04-03T04:13:31;3.70;99.90
19970;DHT22;10146;47.754;9.566;2023-04-03T04:15:57;3.50;99.90
19970;DHT22;10146;47.754;9.566;2023-04-03T04:18:23;3.50;99.90
19970;DHT22;10146;47.754;9.566;2023-04-03T04:20:49;3.60;99.90
19970;DHT22;10146;47.754;9.566;2023-04-03T04:23:17;3.60;99.90
19970;DHT22;10146;47.754;9.566;2023-04-03T04:25:49;3.60;99.90
19970;DHT22;10146;47.754;9.566;2023-04-03T04:28:15;3.60;99.90
19970;DHT22;10146;47.754;9.566;2023-04-03T04:30:41;3.70;99.90
19970;DHT22;10146;47.754;9.566;2023-04-03T04:33:07;3.70;99.90
19970;DHT22;10146;47.754;9.566;2023-04-03T04:35:33;3.70;99.90
19970;DHT22;10146;47.754;9.566;2023-04-03T04:37:59;3.60;99.90
19970;DHT22;10146;47.754;9.566;2023-04-03T04:40:25;3.60;99.90
19970;DHT22;10146;47.754;9.566;2023-04-03T04:42:51;3.60;99.90
19970;DHT22;10146;47.754;9.566;2023-04-03T04:45:17;3.60;99.90
19970;DHT22;10146;47.754;9.566;2023-04-03T04:47:43;3.70;99.90
19970;DHT22;10146;47.754;9.566;2023-04-03T04:50:10;3.60;99.90
19970;DHT22;10146;47.754;9.566;2023-04-03T04:52:37;3.80;99.90
19970;DHT22;10146;47.754;9.566;2023-04-03T04:55:03;3.70;99.90
19970;DHT22;10146;47.754;9.566;2023-04-03T04:57:29;3.60;99.90
19970;DHT22;10146;47.754;9.566;2023-04-03T04:59:54;3.70;99.90
19970;DHT22;10146;47.754;9.566;2023-04-03T05:02:20;3.60;99.90
19970;DHT22;10146;47.754;9.566;2023-04-03T05:04:46;3.60;99.90
19970;DHT22;10146;47.754;9.566;2023-04-03T05:07:11;3.70;99.90
19970;DHT22;10146;47.754;9.566;2023-04-03T05:09:37;3.60;99.90
19970;DHT22;10146;47.754;9.566;2023-04-03T05:12:03;3.60;99.90
19970;DHT22;10146;47.754;9.566;2023-04-03T05:14:28;3.70;99.90
19970;DHT22;10146;47.754;9.566;2023-04-03T05:16:54;3.70;99.90
19970;DHT22;10146;47.754;9.566;2023-04-03T05:19:20;3.70;99.90
19970;DHT22;10146;47.754;9.566;2023-04-03T05:21:47;3.70;99.90
19970;DHT22;10146;47.754;9.566;2023-04-03T05:24:13;3.70;99.90
19970;DHT22;10146;47.754;9.566;2023-04-03T05:26:40;3.70;99.90
19970;DHT22;10146;47.754;9.566;2023-04-03T05:29:06;3.80;99.90
19970;DHT22;10146;47.754;9.566;2023-04-03T05:31:31;3.80;99.90
19970;DHT22;10146;47.754;9.566;2023-04-03T05:33:57;3.70;99.90
19970;DHT22;10146;47.754;9.566;2023-04-03T05:36:23;3.70;99.90
19970;DHT22;10146;47.754;9.566;2023-04-03T05:38:49;3.90;99.90
19970;DHT22;10146;47.754;9.566;2023-04-03T05:41:15;3.70;99.90
19970;DHT22;10146;47.754;9.566;2023-04-03T05:43:41;3.80;99.90
19970;DHT22;10146;47.754;9.566;2023-04-03T05:46:13;3.70;99.90
19970;DHT22;10146;47.754;9.566;2023-04-03T05:48:39;3.80;99.90
19970;DHT22;10146;47.754;9.566;2023-04-03T05:51:05;3.70;99.90
19970;DHT22;10146;47.754;9.566;2023-04-03T05:53:33;3.70;99.90
19970;DHT22;10146;47.754;9.566;2023-04-03T05:56:00;3.80;99.90
19970;DHT22;10146;47.754;9.566;2023-04-03T05:58:26;3.80;99.90
19970;DHT22;10146;47.754;9.566;2023-04-03T06:00:51;4.00;99.90
19970;DHT22;10146;47.754;9.566;2023-04-03T06:03:18;4.00;99.90
19970;DHT22;10146;47.754;9.566;2023-04-03T06:05:43;3.90;99.90
19970;DHT22;10146;47.754;9.566;2023-04-03T06:08:09;3.90;99.90
19970;DHT22;10146;47.754;9.566;2023-04-03T06:10:35;4.00;99.90
19970;DHT22;10146;47.754;9.566;2023-04-03T06:13:01;3.90;99.90
19970;DHT22;10146;47.754;9.566;2023-04-03T06:15:27;4.00;99.90
19970;DHT22;10146;47.754;9.566;2023-04-03T06:17:53;4.10;99.90
19970;DHT22;10146;47.754;9.566;2023-04-03T06:20:19;4.10;99.90
19970;DHT22;10146;47.754;9.566;2023-04-03T06:22:45;4.10;99.90
19970;DHT22;10146;47.754;9.566;2023-04-03T06:25:11;4.10;99.90
19970;DHT22;10146;47.754;9.566;2023-04-03T06:27:37;4.20;99.90
19970;DHT22;10146;47.754;9.566;2023-04-03T06:30:04;4.10;99.90
19970;DHT22;10146;47.754;9.566;2023-04-03T06:32:30;4.10;99.90
19970;DHT22;10146;47.754;9.566;2023-04-03T06:34:55;4.20;99.90
19970;DHT22;10146;47.754;9.566;2023-04-03T06:37:22;4.30;99.90
19970;DHT22;10146;47.754;9.566;2023-04-03T06:39:51;4.30;99.90
19970;DHT22;10146;47.754;9.566;2023-04-03T06:42:17;4.30;99.90
19970;DHT22;10146;47.754;9.566;2023-04-03T06:44:43;4.40;99.90
19970;DHT22;10146;47.754;9.566;2023-04-03T06:47:12;4.50;99.90
19970;DHT22;10146;47.754;9.566;2023-04-03T06:49:38;4.50;99.90
19970;DHT22;10146;47.754;9.566;2023-04-03T06:52:03;4.50;99.90
19970;DHT22;10146;47.754;9.566;2023-04-03T06:54:30;4.40;99.90
19970;DHT22;10146;47.754;9.566;2023-04-03T06:56:55;4.40;99.90
19970;DHT22;10146;47.754;9.566;2023-04-03T06:59:21;4.40;99.90
19970;DHT22;10146;47.754;9.566;2023-04-03T07:01:46;4.50;99.90
19970;DHT22;10146;47.754;9.566;2023-04-03T07:04:12;4.70;99.90
19970;DHT22;10146;47.754;9.566;2023-04-03T07:06:38;4.70;99.90
19970;DHT22;10146;47.754;9.566;2023-04-03T07:09:04;4.70;99.90
19970;DHT22;10146;47.754;9.566;2023-04-03T07:11:29;4.50;99.90
19970;DHT22;10146;47.754;9.566;2023-04-03T07:13:55;4.50;99.90
19970;DHT22;10146;47.754;9.566;2023-04-03T07:16:21;4.60;99.90
19970;DHT22;10146;47.754;9.566;2023-04-03T07:18:47;4.70;99.90
19970;DHT22;10146;47.754;9.566;2023-04-03T07:21:13;4.80;99.90
19970;DHT22;10146;47.754;9.566;2023-04-03T07:23:39;4.80;99.90
19970;DHT22;10146;47.754;9.566;2023-04-03T07:26:05;5.00;99.90
19970;DHT22;10146;47.754;9.566;2023-04-03T07:28:31;4.90;99.90
19970;DHT22;10146;47.754;9.566;2023-04-03T07:31:04;5.00;99.90
19970;DHT22;10146;47.754;9.566;2023-04-03T07:33:32;4.90;99.90
19970;DHT22;10146;47.754;9.566;2023-04-03T07:35:58;4.90;99.90
19970;DHT22;10146;47.754;9.566;2023-04-03T07:38:24;5.00;99.90
19970;DHT22;10146;47.754;9.566;2023-04-03T07:40:50;5.00;99.90
19970;DHT22;10146;47.754;9.566;2023-04-03T07:43:18;5.10;99.90
19970;DHT22;10146;47.754;9.566;2023-04-03T07:45:44;5.00;99.90
19970;DHT22;10146;47.754;9.566;2023-04-03T07:48:11;5.10;99.90
19970;DHT22;10146;47.754;9.566;2023-04-03T07:50:39;5.20;99.90
19970;DHT22;10146;47.754;9.566;2023-04-03T07:53:05;5.10;99.90
19970;DHT22;10146;47.754;9.566;2023-04-03T07:55:31;5.10;99.90
19970;DHT22;10146;47.754;9.566;2023-04-03T07:57:57;5.30;99.90
19970;DHT22;10146;47.754;9.566;2023-04-03T08:00:23;5.30;99.90
19970;DHT22;10146;47.754;9.566;2023-04-03T08:02:50;5.30;99.90
19970;DHT22;10146;47.754;9.566;2023-04-03T08:05:20;5.30;99.90
19970;DHT22;10146;47.754;9.566;2023-04-03T08:07:47;5.30;99.90
19970;DHT22;10146;47.754;9.566;2023-04-03T08:10:14;5.60;99.90
19970;DHT22;10146;47.754;9.566;2023-04-03T08:12:40;5.70;99.90
19970;DHT22;10146;47.754;9.566;2023-04-03T08:15:07;5.60;99.90
19970;DHT22;10146;47.754;9.566;2023-04-03T08:17:34;5.70;99.90
19970;DHT22;10146;47.754;9.566;2023-04-03T08:20:00;5.80;99.90
19970;DHT22;10146;47.754;9.566;2023-04-03T08:22:26;5.90;99.90
19970;DHT22;10146;47.754;9.566;2023-04-03T08:24:51;5.80;99.90
19970;DHT22;10146;47.754;9.566;2023-04-03T08:27:17;5.80;99.90
19970;DHT22;10146;47.754;9.566;2023-04-03T08:29:43;6.00;99.90
19970;DHT22;10146;47.754;9.566;2023-04-03T08:32:08;6.00;99.90
19970;DHT22;10146;47.754;9.566;2023-04-03T08:34:34;5.80;99.90
19970;DHT22;10146;47.754;9.566;2023-04-03T08:37:01;5.90;99.90
19970;DHT22;10146;47.754;9.566;2023-04-03T08:39:27;5.90;99.90
19970;DHT22;10146;47.754;9.566;2023-04-03T08:41:55;6.10;99.90
19970;DHT22;10146;47.754;9.566;2023-04-03T08:44:39;6.30;99.90
19970;DHT22;10146;47.754;9.566;2023-04-03T08:52:52;6.60;99.90
19970;DHT22;10146;47.754;9.566;2023-04-03T08:55:48;6.80;99.90
19970;DHT22;10146;47.754;9.566;2023-04-03T08:58:19;6.80;99.90
19970;DHT22;10146;47.754;9.566;2023-04-03T09:00:57;6.60;99.90
19970;DHT22;10146;47.754;9.566;2023-04-03T09:03:24;6.70;99.90
19970;DHT22;10146;47.754;9.566;2023-04-03T09:08:51;6.50;99.90
19970;DHT22;10146;47.754;9.566;2023-04-03T09:14:04;6.90;99.90
19970;DHT22;10146;47.754;9.566;2023-04-03T09:22:24;7.10;99.90
19970;DHT22;10146;47.754;9.566;2023-04-03T09:25:00;7.20;99.90
19970;DHT22;10146;47.754;9.566;2023-04-03T09:27:27;7.00;99.90
19970;DHT22;10146;47.754;9.566;2023-04-03T09:29:55;7.20;99.90
19970;DHT22;10146;47.754;9.566;2023-04-03T09:32:32;7.40;99.90
19970;DHT22;10146;47.754;9.566;2023-04-03T09:35:02;7.40;99.90
19970;DHT22;10146;47.754;9.566;2023-04-03T09:37:42;7.30;99.90
19970;DHT22;10146;47.754;9.566;2023-04-03T09:43:18;7.40;99.90
19970;DHT22;10146;47.754;9.566;2023-04-03T09:45:46;7.40;99.90
19970;DHT22;10146;47.754;9.566;2023-04-03T09:50:59;7.10;99.90
19970;DHT22;10146;47.754;9.566;2023-04-03T09:53:38;7.00;99.90
19970;DHT22;10146;47.754;9.566;2023-04-03T09:59:35;7.40;99.90
19970;DHT22;10146;47.754;9.566;2023-04-03T10:01:38;7.60;99.90
19970;DHT22;10146;47.754;9.566;2023-04-03T10:04:14;7.60;99.90
19970;DHT22;10146;47.754;9.566;2023-04-03T10:06:49;7.50;99.90
19970;DHT22;10146;47.754;9.566;2023-04-03T10:12:04;7.50;99.90
19970;DHT22;10146;47.754;9.566;2023-04-03T10:14:32;7.50;99.90
19970;DHT22;10146;47.754;9.566;2023-04-03T10:25:32;7.90;99.90
19970;DHT22;10146;47.754;9.566;2023-04-03T10:28:02;8.00;99.90
19970;DHT22;10146;47.754;9.566;2023-04-03T10:31:01;7.90;99.90
19970;DHT22;10146;47.754;9.566;2023-04-03T10:36:24;7.90;99.90
19970;DHT22;10146;47.754;9.566;2023-04-03T10:39:10;8.10;99.90
19970;DHT22;10146;47.754;9.566;2023-04-03T10:47:17;8.10;99.90
19970;DHT22;10146;47.754;9.566;2023-04-03T10:50:27;8.20;99.90
19970;DHT22;10146;47.754;9.566;2023-04-03T10:53:03;8.50;99.90
19970;DHT22;10146;47.754;9.566;2023-04-03T10:56:03;8.50;99.90
19970;DHT22;10146;47.754;9.566;2023-04-03T10:58:44;8.50;99.90
19970;DHT22;10146;47.754;9.566;2023-04-03T11:01:18;8.70;99.90
19970;DHT22;10146;47.754;9.566;2023-04-03T11:03:49;8.70;99.90
19970;DHT22;10146;47.754;9.566;2023-04-03T11:06:19;8.50;99.90
19970;DHT22;10146;47.754;9.566;2023-04-03T11:09:02;8.80;99.90
19970;DHT22;10146;47.754;9.566;2023-04-03T11:11:34;8.80;99.90
19970;DHT22;10146;47.754;9.566;2023-04-03T11:14:24;8.80;99.90
19970;DHT22;10146;47.754;9.566;2023-04-03T11:19:43;8.90;99.90
19970;DHT22;10146;47.754;9.566;2023-04-03T11:27:25;9.20;99.90
19970;DHT22;10146;47.754;9.566;2023-04-03T11:29:53;9.20;99.90
19970;DHT22;10146;47.754;9.566;2023-04-03T11:32:43;9.30;99.90
19970;DHT22;10146;47.754;9.566;2023-04-03T11:35:14;9.40;99.90
19970;DHT22;10146;47.754;9.566;2023-04-03T11:37:49;9.10;99.40
19970;DHT22;10146;47.754;9.566;2023-04-03T11:43:29;9.10;99.80
19970;DHT22;10146;47.754;9.566;2023-04-03T11:46:00;9.00;99.90
19970;DHT22;10146;47.754;9.566;2023-04-03T11:50:55;8.80;99.90
19970;DHT22;10146;47.754;9.566;2023-04-03T11:53:39;8.60;99.90
19970;DHT22;10146;47.754;9.566;2023-04-03T12:05:28;8.80;99.40
19970;DHT22;10146;47.754;9.566;2023-04-03T12:25:00;8.20;99.90
19970;DHT22;10146;47.754;9.566;2023-04-03T12:28:05;8.80;99.90
19970;DHT22;10146;47.754;9.566;2023-04-03T12:30:35;8.90;98.40
19970;DHT22;10146;47.754;9.566;2023-04-03T12:33:37;8.60;98.60
19970;DHT22;10146;47.754;9.566;2023-04-03T12:36:09;8.60;99.90
19970;DHT22;10146;47.754;9.566;2023-04-03T12:38:45;8.80;99.90
19970;DHT22;10146;47.754;9.566;2023-04-03T12:44:46;8.30;99.20
19970;DHT22;10146;47.754;9.566;2023-04-03T12:47:35;8.60;98.60
19970;DHT22;10146;47.754;9.566;2023-04-03T12:50:27;8.70;98.80
19970;DHT22;10146;47.754;9.566;2023-04-03T12:53:11;8.70;97.60
19970;DHT22;10146;47.754;9.566;2023-04-03T12:55:38;8.50;96.90
19970;DHT22;10146;47.754;9.566;2023-04-03T12:58:22;8.30;97.50
19970;DHT22;10146;47.754;9.566;2023-04-03T13:01:25;8.30;97.90
19970;DHT22;10146;47.754;9.566;2023-04-03T13:03:58;8.60;98.30
19970;DHT22;10146;47.754;9.566;2023-04-03T13:06:47;8.60;97.10
19970;DHT22;10146;47.754;9.566;2023-04-03T13:09:30;9.00;95.90
19970;DHT22;10146;47.754;9.566;2023-04-03T13:12:02;8.90;95.40
19970;DHT22;10146;47.754;9.566;2023-04-03T13:14:30;9.30;94.90
19970;DHT22;10146;47.754;9.566;2023-04-03T13:17:12;9.70;93.50
19970;DHT22;10146;47.754;9.566;2023-04-03T13:19:48;9.80;93.40
19970;DHT22;10146;47.754;9.566;2023-04-03T13:22:36;9.70;94.40
19970;DHT22;10146;47.754;9.566;2023-04-03T13:25:10;9.00;96.60
19970;DHT22;10146;47.754;9.566;2023-04-03T13:27:38;8.20;97.30
19970;DHT22;10146;47.754;9.566;2023-04-03T13:30:27;7.90;99.70
19970;DHT22;10146;47.754;9.566;2023-04-03T13:32:55;7.80;99.90
19970;DHT22;10146;47.754;9.566;2023-04-03T13:35:37;7.70;99.90
19970;DHT22;10146;47.754;9.566;2023-04-03T13:40:53;8.20;99.90
19970;DHT22;10146;47.754;9.566;2023-04-03T13:43:24;8.70;99.70
19970;DHT22;10146;47.754;9.566;2023-04-03T13:48:45;8.20;97.40
19970;DHT22;10146;47.754;9.566;2023-04-03T13:53:59;8.50;97.70
19970;DHT22;10146;47.754;9.566;2023-04-03T13:56:36;8.70;96.20
19970;DHT22;10146;47.754;9.566;2023-04-03T13:59:20;8.90;95.20
19970;DHT22;10146;47.754;9.566;2023-04-03T14:01:51;8.90;94.70
19970;DHT22;10146;47.754;9.566;2023-04-03T14:04:25;9.10;93.90
19970;DHT22;10146;47.754;9.566;2023-04-03T14:06:51;9.00;93.30
19970;DHT22;10146;47.754;9.566;2023-04-03T14:09:19;8.80;92.60
19970;DHT22;10146;47.754;9.566;2023-04-03T14:11:47;8.90;93.80
19970;DHT22;10146;47.754;9.566;2023-04-03T14:14:18;9.10;93.50
19970;DHT22;10146;47.754;9.566;2023-04-03T14:16:48;8.80;93.70
19970;DHT22;10146;47.754;9.566;2023-04-03T14:19:30;8.40;94.20
19970;DHT22;10146;47.754;9.566;2023-04-03T14:21:59;8.20;95.90
19970;DHT22;10146;47.754;9.566;2023-04-03T14:24:25;8.20;95.30
19970;DHT22;10146;47.754;9.566;2023-04-03T14:26:54;8.10;95.80
19970;DHT22;10146;47.754;9.566;2023-04-03T14:29:21;8.00;96.10
19970;DHT22;10146;47.754;9.566;2023-04-03T14:31:47;8.30;95.80
19970;DHT22;10146;47.754;9.566;2023-04-03T14:34:14;8.60;96.30
19970;DHT22;10146;47.754;9.566;2023-04-03T14:36:41;8.90;93.20
19970;DHT22;10146;47.754;9.566;2023-04-03T14:39:11;9.80;91.40
19970;DHT22;10146;47.754;9.566;2023-04-03T14:41:41;9.80;90.50
19970;DHT22;10146;47.754;9.566;2023-04-03T14:44:06;9.90;90.40
19970;DHT22;10146;47.754;9.566;2023-04-03T14:46:35;9.90;90.30
19970;DHT22;10146;47.754;9.566;2023-04-03T14:49:02;9.60;89.10
19970;DHT22;10146;47.754;9.566;2023-04-03T14:51:28;9.70;89.80
19970;DHT22;10146;47.754;9.566;2023-04-03T14:53:53;10.00;88.90
19970;DHT22;10146;47.754;9.566;2023-04-03T14:56:28;9.30;86.80
19970;DHT22;10146;47.754;9.566;2023-04-03T14:59:00;9.00;90.30
19970;DHT22;10146;47.754;9.566;2023-04-03T15:01:27;9.40;90.30
19970;DHT22;10146;47.754;9.566;2023-04-03T15:03:53;9.60;89.30
19970;DHT22;10146;47.754;9.566;2023-04-03T15:06:20;9.40;89.80
19970;DHT22;10146;47.754;9.566;2023-04-03T15:08:47;9.20;90.30
19970;DHT22;10146;47.754;9.566;2023-04-03T15:11:14;9.20;90.70
19970;DHT22;10146;47.754;9.566;2023-04-03T15:13:40;9.10;90.30
19970;DHT22;10146;47.754;9.566;2023-04-03T15:16:14;8.90;90.70
19970;DHT22;10146;47.754;9.566;2023-04-03T15:18:40;8.90;91.20
19970;DHT22;10146;47.754;9.566;2023-04-03T15:21:06;9.00;91.50
19970;DHT22;10146;47.754;9.566;2023-04-03T15:23:32;8.70;92.40
19970;DHT22;10146;47.754;9.566;2023-04-03T15:25:58;8.60;92.10
19970;DHT22;10146;47.754;9.566;2023-04-03T15:28:31;8.60;93.00
19970;DHT22;10146;47.754;9.566;2023-04-03T15:30:58;8.70;94.30
19970;DHT22;10146;47.754;9.566;2023-04-03T15:33:24;8.60;93.90
19970;DHT22;10146;47.754;9.566;2023-04-03T15:35:50;8.30;93.60
19970;DHT22;10146;47.754;9.566;2023-04-03T15:38:16;8.10;94.10
19970;DHT22;10146;47.754;9.566;2023-04-03T15:40:41;8.20;94.60
19970;DHT22;10146;47.754;9.566;2023-04-03T15:43:08;8.10;95.60
19970;DHT22;10146;47.754;9.566;2023-04-03T15:45:36;8.00;95.90
19970;DHT22;10146;47.754;9.566;2023-04-03T15:48:03;8.10;95.90
19970;DHT22;10146;47.754;9.566;2023-04-03T15:50:28;7.80;95.90
19970;DHT22;10146;47.754;9.566;2023-04-03T15:52:54;7.80;96.60
19970;DHT22;10146;47.754;9.566;2023-04-03T15:55:24;7.80;96.10
19970;DHT22;10146;47.754;9.566;2023-04-03T15:57:51;8.00;96.70
19970;DHT22;10146;47.754;9.566;2023-04-03T16:00:16;8.00;96.30
19970;DHT22;10146;47.754;9.566;2023-04-03T16:02:44;8.00;96.30
19970;DHT22;10146;47.754;9.566;2023-04-03T16:05:10;7.90;95.90
19970;DHT22;10146;47.754;9.566;2023-04-03T16:07:38;7.80;96.10
19970;DHT22;10146;47.754;9.566;2023-04-03T16:10:05;7.90;96.70
19970;DHT22;10146;47.754;9.566;2023-04-03T16:12:30;8.00;96.70
19970;DHT22;10146;47.754;9.566;2023-04-03T16:14:56;8.00;97.20
19970;DHT22;10146;47.754;9.566;2023-04-03T16:17:22;7.80;97.10
19970;DHT22;10146;47.754;9.566;2023-04-03T16:19:47;7.80;97.20
19970;DHT22;10146;47.754;9.566;2023-04-03T16:22:13;7.80;97.40
19970;DHT22;10146;47.754;9.566;2023-04-03T16:24:38;7.80;97.60
19970;DHT22;10146;47.754;9.566;2023-04-03T16:27:05;7.70;98.10
19970;DHT22;10146;47.754;9.566;2023-04-03T16:29:30;7.80;98.00
19970;DHT22;10146;47.754;9.566;2023-04-03T16:31:57;7.50;97.50
19970;DHT22;10146;47.754;9.566;2023-04-03T16:34:23;7.50;98.30
19970;DHT22;10146;47.754;9.566;2023-04-03T16:36:51;7.50;98.50
19970;DHT22;10146;47.754;9.566;2023-04-03T16:39:17;7.50;98.80
19970;DHT22;10146;47.754;9.566;2023-04-03T16:41:43;7.40;97.60
19970;DHT22;10146;47.754;9.566;2023-04-03T16:44:09;7.50;98.30
19970;DHT22;10146;47.754;9.566;2023-04-03T16:46:35;7.50;98.30
19970;DHT22;10146;47.754;9.566;2023-04-03T16:49:00;7.50;98.30
19970;DHT22;10146;47.754;9.566;2023-04-03T16:51:26;7.40;99.00
19970;DHT22;10146;47.754;9.566;2023-04-03T16:53:52;7.30;99.20
19970;DHT22;10146;47.754;9.566;2023-04-03T16:56:17;7.40;99.20
19970;DHT22;10146;47.754;9.566;2023-04-03T16:58:43;7.30;98.40
19970;DHT22;10146;47.754;9.566;2023-04-03T17:01:13;7.30;97.90
19970;DHT22;10146;47.754;9.566;2023-04-03T17:03:39;7.20;98.60
19970;DHT22;10146;47.754;9.566;2023-04-03T17:06:04;7.00;97.00
19970;DHT22;10146;47.754;9.566;2023-04-03T17:08:30;7.10;96.50
19970;DHT22;10146;47.754;9.566;2023-04-03T17:10:56;7.10;95.40
19970;DHT22;10146;47.754;9.566;2023-04-03T17:13:22;7.00;95.60
19970;DHT22;10146;47.754;9.566;2023-04-03T17:15:47;7.00;95.70
19970;DHT22;10146;47.754;9.566;2023-04-03T17:18:13;7.10;95.70
19970;DHT22;10146;47.754;9.566;2023-04-03T17:20:39;7.00;95.70
19970;DHT22;10146;47.754;9.566;2023-04-03T17:23:05;7.00;96.80
19970;DHT22;10146;47.754;9.566;2023-04-03T17:25:31;6.80;97.70
19970;DHT22;10146;47.754;9.566;2023-04-03T17:27:57;6.80;98.50
19970;DHT22;10146;47.754;9.566;2023-04-03T17:30:22;6.70;99.40
19970;DHT22;10146;47.754;9.566;2023-04-03T17:32:48;6.60;99.50
19970;DHT22;10146;47.754;9.566;2023-04-03T17:35:14;6.60;99.90
19970;DHT22;10146;47.754;9.566;2023-04-03T17:37:40;6.40;99.90
19970;DHT22;10146;47.754;9.566;2023-04-03T17:40:06;6.40;99.90